Time;durP1;ratioP1;P1;durP2;ratioP2;P2;SDS_P1;SDS_P2;PMS_P1;PMS_P2;Temp;Humidity;BMP_temperature;BMP_pressure;BME280_temperature;BME280_humidity;BME280_pressure;Samples;Min_cycle;Max_cycle;Signal;HPM_P1;HPM_P2
2022/01/13 14:20:04;;;;;;;29.52;12.05;;;;;;;7.14;100.00;103754.38;5241555;22;20047;-75
2022/01/13 14:22:29;;;;;;;;;;;;;;;7.12;100.00;103751.72;4994893;28;20064;-74
2022/01/13 14:24:57;;;;;;;33.45;12.50;;;;;;;7.10;100.00;103742.00;5012826;28;19925;-75
2022/01/13 14:27:23;;;;;;;27.63;12.02;;;;;;;7.07;100.00;103735.84;4979001;28;20044;-75
2022/01/13 14:29:50;;;;;;;27.65;10.88;;;;;;;7.05;100.00;103737.56;4964311;28;20033;-74
2022/01/13 14:32:20;;;;;;;25.45;11.02;;;;;;;7.03;100.00;103726.09;5009157;28;20060;-74
2022/01/13 14:34:49;;;;;;;36.15;11.55;;;;;;;7.03;100.00;103731.38;5014155;28;20037;-75
2022/01/13 14:37:15;;;;;;;25.45;10.15;;;;;;;7.01;100.00;103722.56;4996718;28;20862;-75
2022/01/13 14:39:41;;;;;;;30.85;11.50;;;;;;;6.99;100.00;103728.66;4996229;28;20566;-76
2022/01/13 14:42:12;;;;;;;27.95;10.50;;;;;;;6.97;100.00;103731.28;5001694;28;20479;-75
2022/01/13 15:19:15;;;;;;;23.70;8.20;;;;;;;6.50;100.00;103755.94;5010484;28;20044;-75
2022/01/13 15:58:10;;;;;;;23.65;7.20;;;;;;;5.84;100.00;103751.97;4869587;29;20087;-69
2022/01/13 16:00:37;;;;;;;19.48;6.65;;;;;;;5.81;100.00;103751.94;4873785;29;20129;-69
2022/01/13 16:03:03;;;;;;;25.48;7.35;;;;;;;5.78;100.00;103743.09;4876318;29;20025;-68
2022/01/13 16:05:29;;;;;;;21.77;6.72;;;;;;;5.76;100.00;103753.56;4871580;29;20040;-68
2022/01/13 16:07:54;;;;;;;18.77;6.78;;;;;;;5.72;100.00;103754.34;4875045;29;21872;-69
2022/01/13 16:10:20;;;;;;;25.35;7.75;;;;;;;5.70;100.00;103748.19;4853965;29;20120;-68
2022/01/13 16:12:45;;;;;;;25.08;6.18;;;;;;;5.67;100.00;103748.13;4851249;29;20051;-69
2022/01/13 16:15:15;;;;;;;24.25;6.97;;;;;;;5.62;100.00;103750.63;4870271;29;21309;-70
2022/01/13 16:17:43;;;;;;;22.58;6.68;;;;;;;5.57;100.00;103742.66;4853661;29;20294;-70
2022/01/13 16:20:09;;;;;;;18.63;6.43;;;;;;;5.52;100.00;103746.94;4870818;29;20705;-69
2022/01/13 16:22:35;;;;;;;17.90;6.28;;;;;;;5.50;100.00;103746.00;4844399;29;20483;-68
2022/01/13 16:25:02;;;;;;;14.55;5.97;;;;;;;5.46;100.00;103745.91;4862841;29;20033;-69
2022/01/13 16:27:28;;;;;;;19.20;6.70;;;;;;;5.43;100.00;103738.81;4858038;29;20127;-69
2022/01/13 16:30:00;;;;;;;24.70;7.13;;;;;;;5.38;100.00;103743.97;4855200;29;20028;-69
2022/01/13 16:32:48;;;;;;;19.13;6.38;;;;;;;5.35;100.00;103745.66;4869645;29;20499;-69
2022/01/13 16:35:16;;;;;;;22.40;6.15;;;;;;;5.32;100.00;103748.22;4870051;29;20045;-69
2022/01/13 16:37:44;;;;;;;25.38;6.35;;;;;;;5.28;100.00;103747.22;4851818;29;20155;-69
2022/01/13 16:40:11;;;;;;;14.45;6.55;;;;;;;5.24;100.00;103738.41;4873921;29;20092;-69
2022/01/13 16:42:47;;;;;;;18.30;6.65;;;;;;;5.21;100.00;103740.97;4872738;29;20067;-69
2022/01/13 16:45:34;;;;;;;23.02;6.90;;;;;;;5.18;100.00;103735.66;4873264;29;20093;-69
2022/01/13 16:47:59;;;;;;;19.48;6.43;;;;;;;5.13;100.00;103742.53;4874823;29;20155;-69
2022/01/13 16:50:26;;;;;;;18.48;6.63;;;;;;;5.10;100.00;103734.56;4872512;29;20068;-69
2022/01/13 16:52:53;;;;;;;20.95;10.93;;;;;;;5.07;100.00;103742.38;4841827;29;20036;-69
2022/01/13 16:55:21;;;;;;;21.58;8.95;;;;;;;5.05;100.00;103738.84;4873743;29;21071;-69
2022/01/13 16:57:47;;;;;;;19.60;9.13;;;;;;;5.03;100.00;103742.28;4874314;29;20408;-69
2022/01/13 17:00:14;;;;;;;24.02;7.93;;;;;;;5.03;100.00;103738.78;4872468;29;20052;-69
2022/01/13 17:02:40;;;;;;;22.45;7.30;;;;;;;5.01;100.00;103737.88;4861654;29;20467;-69
2022/01/13 17:05:07;;;;;;;17.42;6.68;;;;;;;4.98;100.00;103727.28;4868366;29;20028;-69
2022/01/13 17:07:33;;;;;;;23.88;7.10;;;;;;;4.98;100.00;103732.53;4886634;29;20115;-69
2022/01/13 17:09:58;;;;;;;30.17;7.53;;;;;;;4.94;100.00;103718.44;4866140;29;20043;-68
2022/01/13 17:12:24;;;;;;;23.67;7.50;;;;;;;4.92;100.00;103730.66;4889786;29;20041;-69
2022/01/13 17:14:50;;;;;;;22.05;6.65;;;;;;;4.88;100.00;103732.31;4889805;29;21246;-69
2022/01/13 17:17:15;;;;;;;18.92;6.88;;;;;;;4.85;100.00;103741.84;4888128;29;20032;-68
2022/01/13 17:19:41;;;;;;;20.25;6.47;;;;;;;4.82;100.00;103726.91;4891265;29;20051;-68
2022/01/13 17:22:17;;;;;;;17.10;6.10;;;;;;;4.80;100.00;103731.22;4890953;29;20036;-68
2022/01/13 17:24:42;;;;;;;17.58;7.20;;;;;;;4.78;100.00;103737.31;4867239;29;20038;-68
2022/01/13 17:27:08;;;;;;;17.08;6.45;;;;;;;4.75;100.00;103731.09;4892374;29;20028;-68
2022/01/13 17:29:33;;;;;;;22.40;7.65;;;;;;;4.73;100.00;103724.94;4887272;29;21790;-67
2022/01/13 17:31:59;;;;;;;18.15;7.78;;;;;;;4.71;100.00;103729.28;4892231;29;20060;-68
2022/01/13 17:34:25;;;;;;;20.65;8.25;;;;;;;4.66;100.00;103715.13;4891904;29;20246;-67
2022/01/13 17:36:50;;;;;;;20.40;6.70;;;;;;;4.65;100.00;103715.09;4878703;29;20040;-67
2022/01/13 17:39:18;;;;;;;23.42;7.47;;;;;;;4.61;100.00;103720.25;4890648;29;20067;-68
2022/01/13 17:41:49;;;;;;;13.55;6.28;;;;;;;4.60;100.00;103722.84;4877296;29;20039;-68
2022/01/13 17:44:17;;;;;;;16.88;6.60;;;;;;;4.56;100.00;103718.34;4892679;29;20799;-68
2022/01/13 17:46:43;;;;;;;19.10;6.95;;;;;;;4.55;100.00;103721.81;4893075;29;20036;-68
2022/01/13 17:49:08;;;;;;;20.38;7.40;;;;;;;4.52;100.00;103717.38;4891852;29;20076;-68
2022/01/13 17:51:34;;;;;;;18.83;8.02;;;;;;;4.49;100.00;103714.69;4892636;29;20060;-68
2022/01/13 17:53:59;;;;;;;21.25;7.50;;;;;;;4.46;100.00;103718.13;4875026;29;20069;-68
2022/01/13 17:56:26;;;;;;;23.45;7.28;;;;;;;4.43;100.00;103725.94;4892366;29;20321;-68
2022/01/13 17:58:52;;;;;;;25.70;7.32;;;;;;;4.40;100.00;103723.19;4892595;29;20118;-68
2022/01/13 18:01:18;;;;;;;17.10;6.88;;;;;;;4.39;100.00;103715.28;4892262;29;20672;-68
2022/01/13 18:03:44;;;;;;;19.55;8.20;;;;;;;4.38;100.00;103718.75;4892300;29;20039;-68
2022/01/13 18:06:09;;;;;;;16.45;7.43;;;;;;;4.35;100.00;103727.44;4877980;29;20032;-67
2022/01/13 18:08:35;;;;;;;22.77;8.00;;;;;;;4.33;100.00;103726.50;4892516;29;20031;-68
2022/01/13 18:11:03;;;;;;;25.48;8.85;;;;;;;4.31;100.00;103722.97;4892619;29;20036;-67
2022/01/13 18:13:30;;;;;;;25.17;10.05;;;;;;;4.29;100.00;103733.41;4890984;29;20419;-67
2022/01/13 18:15:56;;;;;;;20.42;9.93;;;;;;;4.28;100.00;103717.63;4891725;29;20035;-69
2022/01/13 18:18:22;;;;;;;20.48;8.90;;;;;;;4.26;100.00;103708.84;4885626;29;20041;-69
2022/01/13 18:20:49;;;;;;;22.52;8.68;;;;;;;4.24;100.00;103723.66;4889941;29;20062;-68
2022/01/13 18:23:15;;;;;;;21.25;8.70;;;;;;;4.23;100.00;103729.75;4892150;29;20037;-69
2022/01/13 18:25:41;;;;;;;19.95;9.05;;;;;;;4.20;100.00;103714.81;4891626;29;20069;-69
2022/01/13 18:28:07;;;;;;;29.95;10.68;;;;;;;4.20;100.00;103710.44;4889604;29;20039;-69
2022/01/13 18:30:33;;;;;;;24.63;9.68;;;;;;;4.20;100.00;103717.44;4892696;29;20036;-68
2022/01/13 18:32:59;;;;;;;21.60;9.48;;;;;;;4.18;100.00;103712.13;4892652;29;20477;-69
2022/01/13 18:35:24;;;;;;;28.55;13.90;;;;;;;4.18;100.00;103713.84;4892849;29;20036;-68
2022/01/13 18:37:50;;;;;;;28.10;11.60;;;;;;;4.19;100.00;103707.75;4891745;29;20044;-69
2022/01/13 18:40:15;;;;;;;21.02;10.52;;;;;;;4.19;100.00;103703.41;4891517;29;20032;-68
2022/01/13 18:42:48;;;;;;;20.35;9.80;;;;;;;4.18;100.00;103700.75;4891356;29;20123;-69
2022/01/13 18:45:20;;;;;;;20.05;10.07;;;;;;;4.15;100.00;103706.78;4891375;29;20032;-68
2022/01/13 18:47:50;;;;;;;21.83;10.38;;;;;;;4.14;100.00;103704.16;4873710;29;20032;-68
2022/01/13 18:50:17;;;;;;;27.73;9.95;;;;;;;4.12;100.00;103711.06;4891525;29;20571;-68
2022/01/13 18:52:42;;;;;;;20.48;10.43;;;;;;;4.08;100.00;103710.09;4889942;29;20044;-68
2022/01/13 18:55:08;;;;;;;24.27;10.13;;;;;;;4.05;100.00;103704.78;4892760;29;20032;-67
2022/01/13 18:57:34;;;;;;;24.17;9.75;;;;;;;4.03;100.00;103702.09;4893827;29;20036;-68
2022/01/13 19:00:01;;;;;;;24.40;10.57;;;;;;;4.01;100.00;103697.66;4893338;29;20680;-68
2022/01/13 19:02:27;;;;;;;24.00;10.50;;;;;;;3.99;100.00;103699.34;4891406;29;20055;-69
2022/01/13 19:04:53;;;;;;;25.05;10.25;;;;;;;3.96;100.00;103704.53;4889853;29;20040;-68
2022/01/13 19:07:19;;;;;;;20.30;10.88;;;;;;;3.91;100.00;103707.00;4892276;29;20494;-68
2022/01/13 19:09:45;;;;;;;27.70;10.65;;;;;;;3.88;100.00;103707.78;4889183;29;20197;-68
2022/01/13 19:12:10;;;;;;;21.02;10.23;;;;;;;3.86;100.00;103711.25;4894696;29;20040;-67
2022/01/13 19:14:36;;;;;;;22.45;10.73;;;;;;;3.83;100.00;103706.78;4895390;29;20408;-68
2022/01/13 19:17:09;;;;;;;25.70;10.98;;;;;;;3.82;100.00;103705.03;4894307;29;20393;-68
2022/01/13 19:19:44;;;;;;;;;;;;;;;3.78;100.00;103705.75;4894864;29;20048;-68
2022/01/13 19:22:10;;;;;;;31.85;11.32;;;;;;;3.75;100.00;103701.31;4892220;29;19923;-68
2022/01/13 19:24:35;;;;;;;30.98;12.20;;;;;;;3.73;100.00;103703.03;4872301;29;20549;-68
2022/01/13 19:27:01;;;;;;;21.83;11.52;;;;;;;3.71;100.00;103703.81;4894562;29;20147;-68
2022/01/13 19:29:26;;;;;;;28.13;12.43;;;;;;;3.71;100.00;103703.81;4887627;29;20033;-67
2022/01/13 19:31:51;;;;;;;30.50;13.00;;;;;;;3.70;100.00;103696.81;4890251;29;20028;-68
2022/01/13 19:34:17;;;;;;;28.10;12.13;;;;;;;3.67;100.00;103685.38;4893817;29;20136;-68
2022/01/13 19:36:42;;;;;;;24.45;11.60;;;;;;;3.68;100.00;103688.88;4894992;29;20119;-68
2022/01/13 19:39:08;;;;;;;20.42;10.32;;;;;;;3.67;100.00;103693.22;4891589;29;20040;-68
2022/01/13 19:41:34;;;;;;;25.85;11.05;;;;;;;3.66;100.00;103680.09;4893360;29;20036;-68
2022/01/13 19:44:00;;;;;;;26.48;11.30;;;;;;;3.68;100.00;103678.41;4892079;29;20043;-68
2022/01/13 19:46:26;;;;;;;29.40;12.40;;;;;;;3.69;100.00;103688.03;4892935;29;22027;-69
2022/01/13 19:48:52;;;;;;;26.65;11.65;;;;;;;3.69;100.00;103679.31;4892976;29;20036;-68
2022/01/13 19:51:18;;;;;;;32.47;12.50;;;;;;;3.71;100.00;103672.38;4893674;29;20028;-69
2022/01/13 19:53:48;;;;;;;36.08;12.85;;;;;;;3.72;100.00;103675.03;4893518;29;20596;-68
2022/01/13 19:56:16;;;;;;;30.40;12.23;;;;;;;3.74;100.00;103669.81;4893012;29;20075;-69
2022/01/13 19:58:42;;;;;;;24.85;11.88;;;;;;;3.76;100.00;103670.78;4891898;29;20044;-70
2022/01/13 20:01:07;;;;;;;29.23;11.70;;;;;;;3.75;100.00;103656.75;4892117;29;20127;-69
2022/01/13 20:03:33;;;;;;;26.30;11.20;;;;;;;3.77;100.00;103662.06;4875461;29;20420;-72
2022/01/13 20:06:03;;;;;;;30.75;15.45;;;;;;;3.78;100.00;103662.13;4893492;29;20115;-69
2022/01/13 20:08:31;;;;;;;27.77;12.05;;;;;;;3.80;100.00;103663.03;4880190;29;20046;-68
2022/01/13 20:10:58;;;;;;;34.40;12.23;;;;;;;3.82;100.00;103655.22;4891276;29;20067;-69
2022/01/13 20:13:26;;;;;;;29.10;12.18;;;;;;;3.84;100.00;103666.63;4891189;29;20036;-68
2022/01/13 20:15:52;;;;;;;31.50;12.02;;;;;;;3.85;100.00;103665.78;4890469;29;20047;-69
2022/01/13 20:18:18;;;;;;;26.42;11.88;;;;;;;3.86;100.00;103656.19;4892300;29;20092;-69
2022/01/13 20:20:45;;;;;;;23.13;10.23;;;;;;;3.87;100.00;103663.22;4892185;29;20495;-70
2022/01/13 20:23:13;;;;;;;24.85;10.80;;;;;;;3.86;100.00;103662.31;4872373;29;20513;-69
2022/01/13 20:25:40;;;;;;;35.40;12.18;;;;;;;3.88;100.00;103660.59;4872272;29;20046;-69
2022/01/13 20:28:06;;;;;;;31.95;12.85;;;;;;;3.89;100.00;103656.25;4888850;29;20042;-69
2022/01/13 20:30:32;;;;;;;29.75;11.52;;;;;;;3.90;100.00;103658.94;4888306;29;20028;-69
2022/01/13 20:32:58;;;;;;;26.42;11.35;;;;;;;3.90;100.00;103653.69;4889199;29;20094;-70
2022/01/13 20:35:24;;;;;;;28.25;12.07;;;;;;;3.89;100.00;103646.69;4889116;29;20055;-69
2022/01/13 20:37:50;;;;;;;23.25;11.85;;;;;;;3.89;100.00;103649.31;4873439;29;20119;-69
2022/01/13 20:40:16;;;;;;;29.35;11.77;;;;;;;3.90;100.00;103644.94;4889594;29;20187;-68
2022/01/13 20:42:41;;;;;;;27.60;12.00;;;;;;;3.90;100.00;103640.59;4890074;29;20615;-69
2022/01/13 20:45:08;;;;;;;33.92;12.43;;;;;;;3.90;100.00;103637.06;4889882;29;20920;-69
2022/01/13 20:47:33;;;;;;;22.60;11.93;;;;;;;3.88;100.00;103639.63;4873709;29;20086;-69
2022/01/13 20:50:01;;;;;;;24.13;12.13;;;;;;;3.88;100.00;103634.41;4890130;29;20032;-69
2022/01/13 20:52:27;;;;;;;28.63;11.70;;;;;;;3.88;100.00;103642.25;4894694;29;20935;-69
2022/01/13 20:54:53;;;;;;;22.60;12.15;;;;;;;3.87;100.00;103637.88;4895706;29;20036;-68
2022/01/13 20:57:19;;;;;;;25.35;11.55;;;;;;;3.86;100.00;103641.34;4889453;29;20483;-69
2022/01/13 20:59:45;;;;;;;33.25;12.32;;;;;;;3.86;100.00;103643.09;4894908;29;20060;-68
2022/01/13 21:02:11;;;;;;;24.90;10.88;;;;;;;3.87;100.00;103637.00;4887872;29;21503;-69
2022/01/13 21:04:37;;;;;;;28.30;12.73;;;;;;;3.87;100.00;103648.34;4894651;29;20882;-70
2022/01/13 21:07:02;;;;;;;26.48;11.93;;;;;;;3.89;100.00;103645.78;4877843;29;20134;-69
2022/01/13 21:09:28;;;;;;;35.13;12.20;;;;;;;3.91;100.00;103644.97;4895799;29;20036;-70
2022/01/13 21:11:53;;;;;;;35.25;12.23;;;;;;;3.92;100.00;103644.13;4895064;29;20043;-68
2022/01/13 21:14:19;;;;;;;37.67;13.13;;;;;;;3.94;100.00;103634.56;4895241;29;20541;-68
2022/01/13 21:16:44;;;;;;;27.63;12.50;;;;;;;3.95;100.00;103632.84;4877850;29;20048;-70
2022/01/13 21:19:10;;;;;;;31.00;11.48;;;;;;;3.97;100.00;103633.75;4878929;29;20653;-69
2022/01/13 21:21:36;;;;;;;29.95;11.52;;;;;;;3.98;100.00;103638.16;4895910;29;20036;-69
2022/01/13 21:24:01;;;;;;;27.85;11.75;;;;;;;4.01;100.00;103634.72;4895646;29;20976;-69
2022/01/13 21:26:28;;;;;;;24.65;11.82;;;;;;;4.03;100.00;103639.19;4895582;29;20043;-69
2022/01/13 21:28:54;;;;;;;25.50;11.13;;;;;;;4.06;100.00;103633.13;4895203;29;20763;-69
2022/01/13 21:31:20;;;;;;;30.35;13.35;;;;;;;4.06;100.00;103628.78;4895416;29;20067;-69
2022/01/13 21:33:45;;;;;;;28.63;12.38;;;;;;;4.07;100.00;103621.78;4894370;29;20173;-69
2022/01/13 21:36:12;;;;;;;29.98;11.02;;;;;;;4.08;100.00;103632.31;4894099;29;20044;-70
2022/01/13 21:38:38;;;;;;;27.75;12.40;;;;;;;4.08;100.00;103628.81;4894447;29;20055;-68
2022/01/13 21:41:04;;;;;;;28.05;11.27;;;;;;;4.10;100.00;103628.84;4888570;29;20128;-67
2022/01/13 21:43:31;;;;;;;37.33;12.73;;;;;;;4.11;100.00;103628.00;4894435;29;20095;-67
2022/01/13 21:45:57;;;;;;;20.55;10.63;;;;;;;4.12;100.00;103633.28;4894220;29;20322;-67
2022/01/13 21:48:23;;;;;;;25.05;11.27;;;;;;;4.14;100.00;103631.59;4895383;29;20036;-67
2022/01/13 21:50:48;;;;;;;27.92;11.75;;;;;;;4.15;100.00;103632.50;4893805;29;20479;-68
2022/01/13 21:53:15;;;;;;;27.25;12.23;;;;;;;4.17;100.00;103625.53;4895531;29;20040;-68
2022/01/13 21:55:41;;;;;;;30.67;12.70;;;;;;;4.18;100.00;103627.31;4895941;29;20043;-68
2022/01/13 21:58:06;;;;;;;28.08;11.85;;;;;;;4.20;100.00;103620.41;4895437;29;20031;-67
2022/01/13 22:00:32;;;;;;;31.63;13.32;;;;;;;4.21;100.00;103624.78;4893602;29;20127;-68
2022/01/13 22:02:58;;;;;;;29.05;12.18;;;;;;;4.21;100.00;103623.03;4892419;29;20036;-69
2022/01/13 22:05:26;;;;;;;32.22;12.32;;;;;;;4.23;100.00;103624.84;4885904;29;20048;-68
2022/01/13 22:07:58;;;;;;;27.40;11.98;;;;;;;4.23;100.00;103620.47;4871543;29;20056;-68
2022/01/13 22:10:27;;;;;;;21.20;8.90;;;;;;;4.23;100.00;103625.72;4891187;29;20099;-68
2022/01/13 22:12:57;;;;;;;24.42;12.40;;;;;;;4.25;100.00;103624.00;4890616;29;20060;-67
2022/01/13 22:15:23;;;;;;;30.13;12.93;;;;;;;4.26;100.00;103619.66;4890874;29;20032;-67
2022/01/13 22:17:49;;;;;;;25.70;11.93;;;;;;;4.28;100.00;103633.69;4886454;29;20040;-67
2022/01/13 22:20:14;;;;;;;27.70;13.27;;;;;;;4.27;100.00;103632.81;4892308;29;20032;-67
2022/01/13 22:22:42;;;;;;;29.77;12.45;;;;;;;4.28;100.00;103628.44;4892265;29;20040;-68
2022/01/13 22:25:09;;;;;;;23.65;12.07;;;;;;;4.29;100.00;103624.97;4890792;29;20040;-67
2022/01/13 22:27:35;;;;;;;33.08;13.50;;;;;;;4.29;100.00;103615.38;4892436;29;20051;-67
2022/01/13 22:30:02;;;;;;;29.73;12.63;;;;;;;4.31;100.00;103616.28;4874923;29;20036;-68
2022/01/13 22:32:28;;;;;;;29.77;13.25;;;;;;;4.32;100.00;103610.19;4893442;29;20036;-68
2022/01/13 22:34:54;;;;;;;30.35;14.27;;;;;;;4.36;100.00;103608.53;4891615;29;20059;-68
2022/01/13 22:37:19;;;;;;;34.42;13.27;;;;;;;4.38;100.00;103611.19;4891830;29;20106;-67
2022/01/13 22:39:45;;;;;;;35.50;13.15;;;;;;;4.39;100.00;103608.63;4893568;29;20123;-68
2022/01/13 22:42:10;;;;;;;28.25;13.50;;;;;;;4.41;100.00;103619.16;4888045;29;21959;-68
2022/01/13 22:44:39;;;;;;;32.78;13.93;;;;;;;4.43;100.00;103612.22;4894020;29;20078;-67
2022/01/13 22:47:08;;;;;;;38.67;13.30;;;;;;;4.43;100.00;103623.59;4876724;29;20054;-67
2022/01/13 22:49:34;;;;;;;32.88;13.23;;;;;;;4.45;100.00;103621.91;4894672;29;20047;-68
2022/01/13 22:51:59;;;;;;;32.30;14.45;;;;;;;4.49;100.00;103612.38;4876689;29;20039;-67
2022/01/13 22:54:25;;;;;;;47.90;14.88;;;;;;;4.51;100.00;103613.28;4894171;29;21020;-67
2022/01/13 22:56:51;;;;;;;35.45;16.27;;;;;;;4.52;100.00;103611.56;4888234;29;20062;-67
2022/01/13 22:59:17;;;;;;;40.08;18.77;;;;;;;4.53;100.00;103605.44;4877330;29;20083;-67
2022/01/13 23:01:43;;;;;;;39.35;18.20;;;;;;;4.52;100.00;103601.94;4894290;29;20043;-67
2022/01/13 23:04:08;;;;;;;40.28;19.00;;;;;;;4.53;100.00;103608.06;4893442;29;20032;-67
2022/01/13 23:06:34;;;;;;;41.13;17.13;;;;;;;4.51;100.00;103602.78;4894955;29;20067;-67
2022/01/13 23:09:00;;;;;;;36.22;17.02;;;;;;;4.52;100.00;103601.06;4894053;29;20052;-67
2022/01/13 23:11:27;;;;;;;31.67;15.93;;;;;;;4.51;100.00;103599.28;4894033;29;20281;-67
2022/01/13 23:13:53;;;;;;;37.65;17.15;;;;;;;4.51;100.00;103602.78;4892869;29;20034;-68
2022/01/13 23:24:32;;;;;;;33.75;17.08;;;;;;;4.52;100.00;103604.56;4893096;29;20073;-68
2022/01/13 23:26:58;;;;;;;41.08;16.83;;;;;;;4.52;100.00;103596.69;4894324;29;20032;-69
2022/01/13 23:29:23;;;;;;;45.17;18.02;;;;;;;4.53;100.00;103605.44;4893465;29;20043;-68
2022/01/13 23:31:49;;;;;;;31.83;16.83;;;;;;;4.53;100.00;103602.84;4894473;29;20070;-68
2022/01/13 23:34:15;;;;;;;39.30;17.95;;;;;;;4.54;100.00;103596.72;4892584;29;21816;-68
2022/01/13 23:36:40;;;;;;;35.75;17.45;;;;;;;4.55;100.00;103593.25;4890984;29;20163;-68
2022/01/13 23:39:08;;;;;;;38.58;17.88;;;;;;;4.55;100.00;103594.16;4893362;29;20154;-68
2022/01/13 23:41:41;;;;;;;34.13;17.33;;;;;;;4.56;100.00;103592.41;4893511;29;20032;-67
2022/01/13 23:44:09;;;;;;;38.63;17.02;;;;;;;4.56;100.00;103581.91;4886587;29;20027;-67
2022/01/13 23:49:19;;;;;;;34.45;15.65;;;;;;;4.57;100.00;103573.19;4892532;29;20024;-67
2022/01/13 23:51:46;;;;;;;34.47;15.05;;;;;;;4.57;100.00;103581.06;4894317;29;20509;-68
2022/01/13 23:54:11;;;;;;;31.63;15.07;;;;;;;4.58;100.00;103577.59;4890494;29;20570;-68
2022/01/13 23:56:37;;;;;;;29.05;14.23;;;;;;;4.58;100.00;103577.59;4893104;29;20054;-68
2022/01/13 23:59:02;;;;;;;31.10;14.20;;;;;;;4.58;100.00;103577.59;4892480;29;21890;-68
